sensor_id;sensor_type;location;lat;lon;timestamp;temperature;humidity
19803;DHT22;66074;50.764;6.090;2024-01-15T00:02:18;2.60;97.10
19803;DHT22;66074;50.764;6.090;2024-01-15T00:04:43;2.60;97.10
19803;DHT22;66074;50.764;6.090;2024-01-15T00:07:09;2.60;97.20
19803;DHT22;66074;50.764;6.090;2024-01-15T00:09:35;2.60;97.20
19803;DHT22;66074;50.764;6.090;2024-01-15T00:12:01;2.60;97.20
19803;DHT22;66074;50.764;6.090;2024-01-15T00:14:27;2.60;97.20
19803;DHT22;66074;50.764;6.090;2024-01-15T00:16:53;2.60;97.20
19803;DHT22;66074;50.764;6.090;2024-01-15T00:19:21;2.60;97.40
19803;DHT22;66074;50.764;6.090;2024-01-15T00:21:47;2.60;97.50
19803;DHT22;66074;50.764;6.090;2024-01-15T00:24:13;2.60;97.50
19803;DHT22;66074;50.764;6.090;2024-01-15T00:26:39;2.70;97.50
19803;DHT22;66074;50.764;6.090;2024-01-15T00:29:07;2.70;97.50
19803;DHT22;66074;50.764;6.090;2024-01-15T00:31:33;2.70;97.50
19803;DHT22;66074;50.764;6.090;2024-01-15T00:33:58;2.70;97.60
19803;DHT22;66074;50.764;6.090;2024-01-15T00:36:24;2.70;97.50
19803;DHT22;66074;50.764;6.090;2024-01-15T00:38:49;2.80;97.50
19803;DHT22;66074;50.764;6.090;2024-01-15T00:41:15;2.70;97.40
19803;DHT22;66074;50.764;6.090;2024-01-15T00:43:41;2.80;97.40
19803;DHT22;66074;50.764;6.090;2024-01-15T00:46:06;2.80;97.70
19803;DHT22;66074;50.764;6.090;2024-01-15T00:48:32;2.70;97.30
19803;DHT22;66074;50.764;6.090;2024-01-15T00:50:58;2.70;97.40
19803;DHT22;66074;50.764;6.090;2024-01-15T00:53:24;2.70;97.40
19803;DHT22;66074;50.764;6.090;2024-01-15T00:55:49;2.80;97.50
19803;DHT22;66074;50.764;6.090;2024-01-15T00:58:15;2.70;97.50
19803;DHT22;66074;50.764;6.090;2024-01-15T01:00:41;2.80;97.50
19803;DHT22;66074;50.764;6.090;2024-01-15T01:03:07;2.80;97.70
19803;DHT22;66074;50.764;6.090;2024-01-15T01:05:33;2.80;97.60
19803;DHT22;66074;50.764;6.090;2024-01-15T01:07:59;2.70;97.60
19803;DHT22;66074;50.764;6.090;2024-01-15T01:10:25;2.80;97.60
19803;DHT22;66074;50.764;6.090;2024-01-15T01:12:50;2.80;97.50
19803;DHT22;66074;50.764;6.090;2024-01-15T01:15:16;2.70;97.50
19803;DHT22;66074;50.764;6.090;2024-01-15T01:17:42;2.80;97.80
19803;DHT22;66074;50.764;6.090;2024-01-15T01:20:08;2.80;97.90
19803;DHT22;66074;50.764;6.090;2024-01-15T01:22:34;2.80;97.80
19803;DHT22;66074;50.764;6.090;2024-01-15T01:25:01;2.80;97.80
19803;DHT22;66074;50.764;6.090;2024-01-15T01:27:27;2.70;98.00
19803;DHT22;66074;50.764;6.090;2024-01-15T01:29:53;2.70;98.00
19803;DHT22;66074;50.764;6.090;2024-01-15T01:32:18;2.70;98.10
19803;DHT22;66074;50.764;6.090;2024-01-15T01:34:44;2.70;98.30
19803;DHT22;66074;50.764;6.090;2024-01-15T01:37:10;2.70;98.20
19803;DHT22;66074;50.764;6.090;2024-01-15T01:39:39;2.70;98.10
19803;DHT22;66074;50.764;6.090;2024-01-15T01:42:05;2.70;98.20
19803;DHT22;66074;50.764;6.090;2024-01-15T01:44:30;2.70;98.30
19803;DHT22;66074;50.764;6.090;2024-01-15T01:46:57;2.70;98.50
19803;DHT22;66074;50.764;6.090;2024-01-15T01:49:23;2.70;98.30
19803;DHT22;66074;50.764;6.090;2024-01-15T01:51:50;2.70;98.30
19803;DHT22;66074;50.764;6.090;2024-01-15T01:54:16;2.70;98.60
19803;DHT22;66074;50.764;6.090;2024-01-15T01:56:43;2.70;98.80
19803;DHT22;66074;50.764;6.090;2024-01-15T01:59:09;2.60;98.80
19803;DHT22;66074;50.764;6.090;2024-01-15T02:01:36;2.60;99.00
19803;DHT22;66074;50.764;6.090;2024-01-15T02:04:02;2.60;99.00
19803;DHT22;66074;50.764;6.090;2024-01-15T02:06:28;2.60;98.90
19803;DHT22;66074;50.764;6.090;2024-01-15T02:08:54;2.80;99.20
19803;DHT22;66074;50.764;6.090;2024-01-15T02:11:20;2.60;99.10
19803;DHT22;66074;50.764;6.090;2024-01-15T02:13:46;2.70;99.00
19803;DHT22;66074;50.764;6.090;2024-01-15T02:16:12;2.70;98.90
19803;DHT22;66074;50.764;6.090;2024-01-15T02:18:42;2.70;98.90
19803;DHT22;66074;50.764;6.090;2024-01-15T02:21:08;2.70;98.80
19803;DHT22;66074;50.764;6.090;2024-01-15T02:23:34;2.70;98.90
19803;DHT22;66074;50.764;6.090;2024-01-15T02:25:59;2.70;99.00
19803;DHT22;66074;50.764;6.090;2024-01-15T02:28:25;2.70;99.00
19803;DHT22;66074;50.764;6.090;2024-01-15T02:30:50;2.80;98.90
19803;DHT22;66074;50.764;6.090;2024-01-15T02:33:16;2.70;99.00
19803;DHT22;66074;50.764;6.090;2024-01-15T02:35:42;2.70;99.20
19803;DHT22;66074;50.764;6.090;2024-01-15T02:38:07;2.70;99.10
19803;DHT22;66074;50.764;6.090;2024-01-15T02:40:34;2.70;99.30
19803;DHT22;66074;50.764;6.090;2024-01-15T02:42:59;2.80;99.20
19803;DHT22;66074;50.764;6.090;2024-01-15T02:45:25;2.80;99.40
19803;DHT22;66074;50.764;6.090;2024-01-15T02:47:51;2.80;99.20
19803;DHT22;66074;50.764;6.090;2024-01-15T02:50:16;2.80;99.30
19803;DHT22;66074;50.764;6.090;2024-01-15T02:52:42;2.80;99.10
19803;DHT22;66074;50.764;6.090;2024-01-15T02:55:08;2.80;99.40
19803;DHT22;66074;50.764;6.090;2024-01-15T02:57:34;2.80;99.60
19803;DHT22;66074;50.764;6.090;2024-01-15T03:00:00;2.80;99.60
19803;DHT22;66074;50.764;6.090;2024-01-15T03:02:25;2.80;99.60
19803;DHT22;66074;50.764;6.090;2024-01-15T03:04:51;2.80;99.90
19803;DHT22;66074;50.764;6.090;2024-01-15T03:07:16;2.80;99.90
19803;DHT22;66074;50.764;6.090;2024-01-15T03:09:42;2.80;99.90
19803;DHT22;66074;50.764;6.090;2024-01-15T03:12:08;2.90;99.90
19803;DHT22;66074;50.764;6.090;2024-01-15T03:14:33;2.80;99.90
19803;DHT22;66074;50.764;6.090;2024-01-15T03:16:59;2.80;99.90
19803;DHT22;66074;50.764;6.090;2024-01-15T03:19:26;2.80;99.90
19803;DHT22;66074;50.764;6.090;2024-01-15T03:21:51;2.80;99.90
19803;DHT22;66074;50.764;6.090;2024-01-15T03:24:17;2.80;99.90
19803;DHT22;66074;50.764;6.090;2024-01-15T03:26:43;2.80;99.90
19803;DHT22;66074;50.764;6.090;2024-01-15T03:29:08;2.90;99.90
19803;DHT22;66074;50.764;6.090;2024-01-15T03:31:34;2.90;99.90
19803;DHT22;66074;50.764;6.090;2024-01-15T03:34:00;2.90;99.90
19803;DHT22;66074;50.764;6.090;2024-01-15T03:36:25;2.90;99.90
19803;DHT22;66074;50.764;6.090;2024-01-15T03:38:51;2.90;99.90
19803;DHT22;66074;50.764;6.090;2024-01-15T03:41:17;2.90;99.90
19803;DHT22;66074;50.764;6.090;2024-01-15T03:43:42;3.00;99.90
19803;DHT22;66074;50.764;6.090;2024-01-15T03:46:08;3.00;99.90
19803;DHT22;66074;50.764;6.090;2024-01-15T03:48:33;2.90;99.90
19803;DHT22;66074;50.764;6.090;2024-01-15T03:50:59;2.90;99.90
19803;DHT22;66074;50.764;6.090;2024-01-15T03:53:25;2.90;99.90
19803;DHT22;66074;50.764;6.090;2024-01-15T03:55:50;2.90;99.90
19803;DHT22;66074;50.764;6.090;2024-01-15T03:58:16;3.00;99.90
19803;DHT22;66074;50.764;6.090;2024-01-15T04:00:42;3.00;99.90
19803;DHT22;66074;50.764;6.090;2024-01-15T04:03:08;3.00;99.90
19803;DHT22;66074;50.764;6.090;2024-01-15T04:05:34;3.00;99.90
19803;DHT22;66074;50.764;6.090;2024-01-15T04:08:00;3.00;99.90
19803;DHT22;66074;50.764;6.090;2024-01-15T04:10:25;3.00;99.90
19803;DHT22;66074;50.764;6.090;2024-01-15T04:12:51;3.00;99.90
19803;DHT22;66074;50.764;6.090;2024-01-15T04:15:16;3.00;99.90
19803;DHT22;66074;50.764;6.090;2024-01-15T04:17:42;3.00;99.90
19803;DHT22;66074;50.764;6.090;2024-01-15T04:20:08;3.00;99.90
19803;DHT22;66074;50.764;6.090;2024-01-15T04:22:35;3.10;99.90
19803;DHT22;66074;50.764;6.090;2024-01-15T04:25:01;3.00;99.90
19803;DHT22;66074;50.764;6.090;2024-01-15T04:27:27;3.00;99.90
19803;DHT22;66074;50.764;6.090;2024-01-15T04:29:52;3.10;99.90
19803;DHT22;66074;50.764;6.090;2024-01-15T04:32:18;3.10;99.90
19803;DHT22;66074;50.764;6.090;2024-01-15T04:34:44;3.10;99.90
19803;DHT22;66074;50.764;6.090;2024-01-15T04:37:10;3.10;99.90
19803;DHT22;66074;50.764;6.090;2024-01-15T04:39:35;3.10;99.90
19803;DHT22;66074;50.764;6.090;2024-01-15T04:42:01;3.10;99.90
19803;DHT22;66074;50.764;6.090;2024-01-15T04:44:26;3.10;99.90
19803;DHT22;66074;50.764;6.090;2024-01-15T04:46:52;3.10;99.90
19803;DHT22;66074;50.764;6.090;2024-01-15T04:49:17;3.10;99.90
19803;DHT22;66074;50.764;6.090;2024-01-15T04:51:43;3.10;99.90
19803;DHT22;66074;50.764;6.090;2024-01-15T04:54:09;3.10;99.90
19803;DHT22;66074;50.764;6.090;2024-01-15T04:56:34;3.10;99.90
19803;DHT22;66074;50.764;6.090;2024-01-15T04:59:00;3.10;99.90
19803;DHT22;66074;50.764;6.090;2024-01-15T05:01:25;3.10;99.90
19803;DHT22;66074;50.764;6.090;2024-01-15T05:03:55;3.10;99.90
19803;DHT22;66074;50.764;6.090;2024-01-15T05:06:20;3.10;99.90
19803;DHT22;66074;50.764;6.090;2024-01-15T05:08:46;3.10;99.90
19803;DHT22;66074;50.764;6.090;2024-01-15T05:11:11;3.10;99.90
19803;DHT22;66074;50.764;6.090;2024-01-15T05:13:37;3.20;99.90
19803;DHT22;66074;50.764;6.090;2024-01-15T05:16:02;3.20;99.90
19803;DHT22;66074;50.764;6.090;2024-01-15T05:18:28;3.10;99.90
19803;DHT22;66074;50.764;6.090;2024-01-15T05:20:54;3.20;99.90
19803;DHT22;66074;50.764;6.090;2024-01-15T05:23:19;3.20;99.90
19803;DHT22;66074;50.764;6.090;2024-01-15T05:25:45;3.20;99.90
19803;DHT22;66074;50.764;6.090;2024-01-15T05:28:11;3.20;99.90
19803;DHT22;66074;50.764;6.090;2024-01-15T05:30:36;3.20;99.90
19803;DHT22;66074;50.764;6.090;2024-01-15T05:33:02;3.30;99.90
19803;DHT22;66074;50.764;6.090;2024-01-15T05:35:28;3.20;99.90
19803;DHT22;66074;50.764;6.090;2024-01-15T05:37:54;3.20;99.90
19803;DHT22;66074;50.764;6.090;2024-01-15T05:40:19;3.30;99.90
19803;DHT22;66074;50.764;6.090;2024-01-15T05:42:45;3.20;99.90
19803;DHT22;66074;50.764;6.090;2024-01-15T05:45:10;3.20;99.90
19803;DHT22;66074;50.764;6.090;2024-01-15T05:47:36;3.30;99.90
19803;DHT22;66074;50.764;6.090;2024-01-15T05:50:02;3.20;99.90
19803;DHT22;66074;50.764;6.090;2024-01-15T05:52:28;3.20;99.90
19803;DHT22;66074;50.764;6.090;2024-01-15T05:54:53;3.20;99.90
19803;DHT22;66074;50.764;6.090;2024-01-15T05:57:19;3.20;99.90
19803;DHT22;66074;50.764;6.090;2024-01-15T05:59:45;3.20;99.90
19803;DHT22;66074;50.764;6.090;2024-01-15T06:02:11;3.20;99.90
19803;DHT22;66074;50.764;6.090;2024-01-15T06:04:37;3.20;99.90
19803;DHT22;66074;50.764;6.090;2024-01-15T06:07:02;3.20;99.90
19803;DHT22;66074;50.764;6.090;2024-01-15T06:09:28;3.20;99.90
19803;DHT22;66074;50.764;6.090;2024-01-15T06:11:54;3.20;99.90
19803;DHT22;66074;50.764;6.090;2024-01-15T06:14:20;3.10;99.90
19803;DHT22;66074;50.764;6.090;2024-01-15T06:16:45;3.10;99.90
19803;DHT22;66074;50.764;6.090;2024-01-15T06:19:11;3.20;99.90
19803;DHT22;66074;50.764;6.090;2024-01-15T06:21:36;3.20;99.90
19803;DHT22;66074;50.764;6.090;2024-01-15T06:24:02;3.20;99.90
19803;DHT22;66074;50.764;6.090;2024-01-15T06:26:28;3.10;99.90
19803;DHT22;66074;50.764;6.090;2024-01-15T06:28:53;3.30;99.90
19803;DHT22;66074;50.764;6.090;2024-01-15T06:31:19;3.20;99.90
19803;DHT22;66074;50.764;6.090;2024-01-15T06:33:44;3.20;99.90
19803;DHT22;66074;50.764;6.090;2024-01-15T06:36:13;3.20;99.90
19803;DHT22;66074;50.764;6.090;2024-01-15T06:38:39;3.20;99.90
19803;DHT22;66074;50.764;6.090;2024-01-15T06:41:05;3.20;99.90
19803;DHT22;66074;50.764;6.090;2024-01-15T06:43:30;3.20;99.90
19803;DHT22;66074;50.764;6.090;2024-01-15T06:45:56;3.20;99.90
19803;DHT22;66074;50.764;6.090;2024-01-15T06:48:22;3.20;99.90
19803;DHT22;66074;50.764;6.090;2024-01-15T06:50:47;3.20;99.90
19803;DHT22;66074;50.764;6.090;2024-01-15T06:53:13;3.20;99.90
19803;DHT22;66074;50.764;6.090;2024-01-15T06:55:39;3.20;99.90
19803;DHT22;66074;50.764;6.090;2024-01-15T06:58:05;3.30;99.90
19803;DHT22;66074;50.764;6.090;2024-01-15T07:00:30;3.20;99.90
19803;DHT22;66074;50.764;6.090;2024-01-15T07:02:56;3.20;99.90
19803;DHT22;66074;50.764;6.090;2024-01-15T07:05:22;3.20;99.90
19803;DHT22;66074;50.764;6.090;2024-01-15T07:07:47;3.20;99.90
19803;DHT22;66074;50.764;6.090;2024-01-15T07:10:13;3.20;99.90
19803;DHT22;66074;50.764;6.090;2024-01-15T07:12:41;3.20;99.90
19803;DHT22;66074;50.764;6.090;2024-01-15T07:15:07;3.20;99.90
19803;DHT22;66074;50.764;6.090;2024-01-15T07:17:33;3.20;99.90
19803;DHT22;66074;50.764;6.090;2024-01-15T07:19:59;3.10;99.90
19803;DHT22;66074;50.764;6.090;2024-01-15T07:22:25;3.10;99.90
19803;DHT22;66074;50.764;6.090;2024-01-15T07:24:50;3.10;99.90
19803;DHT22;66074;50.764;6.090;2024-01-15T07:27:16;3.10;99.90
19803;DHT22;66074;50.764;6.090;2024-01-15T07:29:41;3.10;99.90
19803;DHT22;66074;50.764;6.090;2024-01-15T07:32:08;3.10;99.90
19803;DHT22;66074;50.764;6.090;2024-01-15T07:34:34;3.10;99.90
19803;DHT22;66074;50.764;6.090;2024-01-15T07:36:59;3.10;99.90
19803;DHT22;66074;50.764;6.090;2024-01-15T07:39:25;3.10;99.90
19803;DHT22;66074;50.764;6.090;2024-01-15T07:41:51;3.20;99.90
19803;DHT22;66074;50.764;6.090;2024-01-15T07:44:17;3.20;99.90
19803;DHT22;66074;50.764;6.090;2024-01-15T07:46:46;3.20;99.90
19803;DHT22;66074;50.764;6.090;2024-01-15T07:49:13;3.20;99.90
19803;DHT22;66074;50.764;6.090;2024-01-15T07:51:39;3.20;99.90
19803;DHT22;66074;50.764;6.090;2024-01-15T07:54:06;3.20;99.90
19803;DHT22;66074;50.764;6.090;2024-01-15T07:56:32;3.20;99.90
19803;DHT22;66074;50.764;6.090;2024-01-15T07:58:58;3.20;99.90
19803;DHT22;66074;50.764;6.090;2024-01-15T08:01:23;3.20;99.90
19803;DHT22;66074;50.764;6.090;2024-01-15T08:03:49;3.20;99.90
19803;DHT22;66074;50.764;6.090;2024-01-15T08:06:15;3.20;99.90
19803;DHT22;66074;50.764;6.090;2024-01-15T08:08:40;3.20;99.90
19803;DHT22;66074;50.764;6.090;2024-01-15T08:11:06;3.20;99.90
19803;DHT22;66074;50.764;6.090;2024-01-15T08:13:32;3.20;99.90
19803;DHT22;66074;50.764;6.090;2024-01-15T08:15:57;3.20;99.90
19803;DHT22;66074;50.764;6.090;2024-01-15T08:18:23;3.20;99.90
19803;DHT22;66074;50.764;6.090;2024-01-15T08:20:49;3.30;99.90
19803;DHT22;66074;50.764;6.090;2024-01-15T08:23:16;3.20;99.90
19803;DHT22;66074;50.764;6.090;2024-01-15T08:25:42;3.30;99.90
19803;DHT22;66074;50.764;6.090;2024-01-15T08:28:08;3.20;99.90
19803;DHT22;66074;50.764;6.090;2024-01-15T08:30:34;3.30;99.90
19803;DHT22;66074;50.764;6.090;2024-01-15T08:33:00;3.20;99.90
19803;DHT22;66074;50.764;6.090;2024-01-15T08:35:25;3.30;99.90
19803;DHT22;66074;50.764;6.090;2024-01-15T08:37:54;3.30;99.90
19803;DHT22;66074;50.764;6.090;2024-01-15T08:40:20;3.30;99.90
19803;DHT22;66074;50.764;6.090;2024-01-15T08:42:46;3.30;99.90
19803;DHT22;66074;50.764;6.090;2024-01-15T08:45:11;3.30;99.90
19803;DHT22;66074;50.764;6.090;2024-01-15T08:47:37;3.40;99.90
19803;DHT22;66074;50.764;6.090;2024-01-15T08:50:04;3.40;99.90
19803;DHT22;66074;50.764;6.090;2024-01-15T08:52:30;3.40;99.80
19803;DHT22;66074;50.764;6.090;2024-01-15T08:54:56;3.40;99.70
19803;DHT22;66074;50.764;6.090;2024-01-15T08:57:22;3.40;99.80
19803;DHT22;66074;50.764;6.090;2024-01-15T08:59:48;3.40;99.50
19803;DHT22;66074;50.764;6.090;2024-01-15T09:02:13;3.40;99.60
19803;DHT22;66074;50.764;6.090;2024-01-15T09:04:39;3.40;99.90
19803;DHT22;66074;50.764;6.090;2024-01-15T09:07:05;3.40;99.80
19803;DHT22;66074;50.764;6.090;2024-01-15T09:09:30;3.50;99.90
19803;DHT22;66074;50.764;6.090;2024-01-15T09:11:56;3.50;99.80
19803;DHT22;66074;50.764;6.090;2024-01-15T09:14:21;3.40;99.70
19803;DHT22;66074;50.764;6.090;2024-01-15T09:16:49;3.50;99.90
19803;DHT22;66074;50.764;6.090;2024-01-15T09:19:15;3.40;99.90
19803;DHT22;66074;50.764;6.090;2024-01-15T09:21:40;3.40;99.90
19803;DHT22;66074;50.764;6.090;2024-01-15T09:24:06;3.40;99.90
19803;DHT22;66074;50.764;6.090;2024-01-15T09:26:32;3.40;99.90
19803;DHT22;66074;50.764;6.090;2024-01-15T09:28:57;3.30;99.90
19803;DHT22;66074;50.764;6.090;2024-01-15T09:31:23;3.30;99.90
19803;DHT22;66074;50.764;6.090;2024-01-15T09:33:49;3.30;99.90
19803;DHT22;66074;50.764;6.090;2024-01-15T09:36:17;3.30;99.90
19803;DHT22;66074;50.764;6.090;2024-01-15T09:38:43;3.30;99.90
19803;DHT22;66074;50.764;6.090;2024-01-15T09:41:09;3.30;99.90
19803;DHT22;66074;50.764;6.090;2024-01-15T09:43:35;3.30;99.90
19803;DHT22;66074;50.764;6.090;2024-01-15T09:46:03;3.30;99.90
19803;DHT22;66074;50.764;6.090;2024-01-15T09:48:29;3.30;99.90
19803;DHT22;66074;50.764;6.090;2024-01-15T09:50:55;3.30;99.90
19803;DHT22;66074;50.764;6.090;2024-01-15T09:53:25;3.30;99.90
19803;DHT22;66074;50.764;6.090;2024-01-15T09:55:52;3.30;99.90
19803;DHT22;66074;50.764;6.090;2024-01-15T09:58:18;3.30;99.90
19803;DHT22;66074;50.764;6.090;2024-01-15T10:00:44;3.30;99.90
19803;DHT22;66074;50.764;6.090;2024-01-15T10:03:13;3.30;99.90
19803;DHT22;66074;50.764;6.090;2024-01-15T10:05:39;3.30;99.90
19803;DHT22;66074;50.764;6.090;2024-01-15T10:08:05;3.30;99.90
19803;DHT22;66074;50.764;6.090;2024-01-15T10:10:31;3.30;99.90
19803;DHT22;66074;50.764;6.090;2024-01-15T10:12:58;3.30;99.90
19803;DHT22;66074;50.764;6.090;2024-01-15T10:15:26;3.40;99.90
19803;DHT22;66074;50.764;6.090;2024-01-15T10:17:51;3.40;99.90
19803;DHT22;66074;50.764;6.090;2024-01-15T10:20:17;3.30;99.90
19803;DHT22;66074;50.764;6.090;2024-01-15T10:22:44;3.40;99.90
19803;DHT22;66074;50.764;6.090;2024-01-15T10:25:13;3.40;99.90
19803;DHT22;66074;50.764;6.090;2024-01-15T10:27:43;3.40;99.90
19803;DHT22;66074;50.764;6.090;2024-01-15T10:30:10;3.50;99.90
19803;DHT22;66074;50.764;6.090;2024-01-15T10:32:36;3.40;99.90
19803;DHT22;66074;50.764;6.090;2024-01-15T10:35:01;3.50;99.90
19803;DHT22;66074;50.764;6.090;2024-01-15T10:37:27;3.50;99.90
19803;DHT22;66074;50.764;6.090;2024-01-15T10:39:53;3.50;99.90
19803;DHT22;66074;50.764;6.090;2024-01-15T10:42:19;3.50;99.90
19803;DHT22;66074;50.764;6.090;2024-01-15T10:44:45;3.50;99.90
19803;DHT22;66074;50.764;6.090;2024-01-15T10:47:13;3.50;99.90
19803;DHT22;66074;50.764;6.090;2024-01-15T10:49:40;3.60;99.90
19803;DHT22;66074;50.764;6.090;2024-01-15T10:52:06;3.70;99.90
19803;DHT22;66074;50.764;6.090;2024-01-15T10:54:32;3.70;99.90
19803;DHT22;66074;50.764;6.090;2024-01-15T10:56:59;3.60;99.90
19803;DHT22;66074;50.764;6.090;2024-01-15T10:59:25;3.70;99.90
19803;DHT22;66074;50.764;6.090;2024-01-15T11:01:54;3.80;99.90
19803;DHT22;66074;50.764;6.090;2024-01-15T11:04:26;3.80;99.80
19803;DHT22;66074;50.764;6.090;2024-01-15T11:06:54;3.80;99.60
19803;DHT22;66074;50.764;6.090;2024-01-15T11:09:20;3.80;99.60
19803;DHT22;66074;50.764;6.090;2024-01-15T11:11:47;3.80;99.80
19803;DHT22;66074;50.764;6.090;2024-01-15T11:14:38;3.90;99.50
19803;DHT22;66074;50.764;6.090;2024-01-15T11:17:04;3.90;99.50
19803;DHT22;66074;50.764;6.090;2024-01-15T11:22:08;3.90;99.50
19803;DHT22;66074;50.764;6.090;2024-01-15T11:24:43;3.90;99.50
19803;DHT22;66074;50.764;6.090;2024-01-15T11:27:09;3.90;99.20
19803;DHT22;66074;50.764;6.090;2024-01-15T11:29:36;3.90;99.00
19803;DHT22;66074;50.764;6.090;2024-01-15T11:32:03;3.90;99.10
19803;DHT22;66074;50.764;6.090;2024-01-15T11:34:49;3.80;99.00
19803;DHT22;66074;50.764;6.090;2024-01-15T11:37:15;3.90;99.10
19803;DHT22;66074;50.764;6.090;2024-01-15T11:39:42;3.90;98.80
19803;DHT22;66074;50.764;6.090;2024-01-15T11:42:10;3.90;98.90
19803;DHT22;66074;50.764;6.090;2024-01-15T11:44:37;3.80;98.90
19803;DHT22;66074;50.764;6.090;2024-01-15T11:47:05;3.90;98.90
19803;DHT22;66074;50.764;6.090;2024-01-15T11:50:00;3.90;99.00
19803;DHT22;66074;50.764;6.090;2024-01-15T11:52:38;3.90;98.70
19803;DHT22;66074;50.764;6.090;2024-01-15T11:57:45;4.00;98.50
19803;DHT22;66074;50.764;6.090;2024-01-15T12:00:11;4.00;98.70
19803;DHT22;66074;50.764;6.090;2024-01-15T12:02:42;3.90;98.10
19803;DHT22;66074;50.764;6.090;2024-01-15T12:05:13;4.00;98.70
19803;DHT22;66074;50.764;6.090;2024-01-15T12:07:39;4.10;98.40
19803;DHT22;66074;50.764;6.090;2024-01-15T12:10:14;4.20;98.60
19803;DHT22;66074;50.764;6.090;2024-01-15T12:15:09;4.20;98.30
19803;DHT22;66074;50.764;6.090;2024-01-15T12:17:35;4.20;97.90
19803;DHT22;66074;50.764;6.090;2024-01-15T12:20:04;4.20;98.20
19803;DHT22;66074;50.764;6.090;2024-01-15T12:22:30;4.10;97.90
19803;DHT22;66074;50.764;6.090;2024-01-15T12:24:56;4.10;97.80
19803;DHT22;66074;50.764;6.090;2024-01-15T12:27:23;4.10;97.80
19803;DHT22;66074;50.764;6.090;2024-01-15T12:29:49;4.10;97.90
19803;DHT22;66074;50.764;6.090;2024-01-15T12:32:14;4.00;97.70
19803;DHT22;66074;50.764;6.090;2024-01-15T12:34:40;4.00;98.10
19803;DHT22;66074;50.764;6.090;2024-01-15T12:37:07;4.00;98.10
19803;DHT22;66074;50.764;6.090;2024-01-15T12:39:36;3.90;98.00
19803;DHT22;66074;50.764;6.090;2024-01-15T12:42:02;4.00;98.40
19803;DHT22;66074;50.764;6.090;2024-01-15T12:44:29;4.00;98.30
19803;DHT22;66074;50.764;6.090;2024-01-15T12:46:54;4.10;98.20
19803;DHT22;66074;50.764;6.090;2024-01-15T12:49:21;4.00;98.20
19803;DHT22;66074;50.764;6.090;2024-01-15T12:51:57;4.00;98.20
19803;DHT22;66074;50.764;6.090;2024-01-15T12:54:23;4.00;98.40
19803;DHT22;66074;50.764;6.090;2024-01-15T12:56:49;3.90;98.60
19803;DHT22;66074;50.764;6.090;2024-01-15T12:59:16;3.90;98.70
19803;DHT22;66074;50.764;6.090;2024-01-15T13:01:41;3.70;99.60
19803;DHT22;66074;50.764;6.090;2024-01-15T13:04:07;3.60;99.90
19803;DHT22;66074;50.764;6.090;2024-01-15T13:06:34;3.50;99.90
19803;DHT22;66074;50.764;6.090;2024-01-15T13:09:03;3.40;99.90
19803;DHT22;66074;50.764;6.090;2024-01-15T13:11:32;3.30;99.90
19803;DHT22;66074;50.764;6.090;2024-01-15T13:13:58;3.40;99.90
19803;DHT22;66074;50.764;6.090;2024-01-15T13:16:24;3.40;99.90
19803;DHT22;66074;50.764;6.090;2024-01-15T13:18:52;3.40;99.90
19803;DHT22;66074;50.764;6.090;2024-01-15T13:21:18;3.40;99.90
19803;DHT22;66074;50.764;6.090;2024-01-15T13:23:43;3.40;99.90
19803;DHT22;66074;50.764;6.090;2024-01-15T13:26:09;3.40;99.90
19803;DHT22;66074;50.764;6.090;2024-01-15T13:28:34;3.40;99.90
19803;DHT22;66074;50.764;6.090;2024-01-15T13:31:00;3.30;99.90
19803;DHT22;66074;50.764;6.090;2024-01-15T13:33:26;3.40;99.90
19803;DHT22;66074;50.764;6.090;2024-01-15T13:35:52;3.40;99.90
19803;DHT22;66074;50.764;6.090;2024-01-15T13:38:17;3.60;99.90
19803;DHT22;66074;50.764;6.090;2024-01-15T13:40:43;3.60;99.90
19803;DHT22;66074;50.764;6.090;2024-01-15T13:43:11;3.60;99.90
19803;DHT22;66074;50.764;6.090;2024-01-15T13:45:37;3.60;99.90
19803;DHT22;66074;50.764;6.090;2024-01-15T13:48:03;3.60;99.90
19803;DHT22;66074;50.764;6.090;2024-01-15T13:50:31;3.60;99.90
19803;DHT22;66074;50.764;6.090;2024-01-15T13:52:57;3.50;99.90
19803;DHT22;66074;50.764;6.090;2024-01-15T13:55:22;3.50;99.90
19803;DHT22;66074;50.764;6.090;2024-01-15T13:57:48;3.60;99.90
19803;DHT22;66074;50.764;6.090;2024-01-15T14:00:14;3.50;99.90
19803;DHT22;66074;50.764;6.090;2024-01-15T14:02:44;3.50;99.90
19803;DHT22;66074;50.764;6.090;2024-01-15T14:05:11;3.50;99.90
19803;DHT22;66074;50.764;6.090;2024-01-15T14:07:38;3.50;99.90
19803;DHT22;66074;50.764;6.090;2024-01-15T14:10:05;3.50;99.90
19803;DHT22;66074;50.764;6.090;2024-01-15T14:12:33;3.50;99.90
19803;DHT22;66074;50.764;6.090;2024-01-15T14:14:59;3.50;99.90
19803;DHT22;66074;50.764;6.090;2024-01-15T14:17:24;3.50;99.90
19803;DHT22;66074;50.764;6.090;2024-01-15T14:19:50;3.50;99.90
19803;DHT22;66074;50.764;6.090;2024-01-15T14:22:15;3.50;99.90
19803;DHT22;66074;50.764;6.090;2024-01-15T14:24:41;3.50;99.90
19803;DHT22;66074;50.764;6.090;2024-01-15T14:27:06;3.50;99.90
19803;DHT22;66074;50.764;6.090;2024-01-15T14:29:32;3.50;99.90
19803;DHT22;66074;50.764;6.090;2024-01-15T14:31:58;3.40;99.90
19803;DHT22;66074;50.764;6.090;2024-01-15T14:34:25;3.40;99.90
19803;DHT22;66074;50.764;6.090;2024-01-15T14:36:51;3.40;99.90
19803;DHT22;66074;50.764;6.090;2024-01-15T14:39:21;3.40;99.90
19803;DHT22;66074;50.764;6.090;2024-01-15T14:41:47;3.40;99.90
19803;DHT22;66074;50.764;6.090;2024-01-15T14:44:13;3.40;99.90
19803;DHT22;66074;50.764;6.090;2024-01-15T14:46:39;3.30;99.90
19803;DHT22;66074;50.764;6.090;2024-01-15T14:49:04;3.40;99.90
19803;DHT22;66074;50.764;6.090;2024-01-15T14:51:30;3.40;99.90
19803;DHT22;66074;50.764;6.090;2024-01-15T14:53:56;3.40;99.90
19803;DHT22;66074;50.764;6.090;2024-01-15T14:56:22;3.40;99.90
19803;DHT22;66074;50.764;6.090;2024-01-15T14:58:48;3.50;99.90
19803;DHT22;66074;50.764;6.090;2024-01-15T15:01:13;3.40;99.90
19803;DHT22;66074;50.764;6.090;2024-01-15T15:03:39;3.40;99.90
19803;DHT22;66074;50.764;6.090;2024-01-15T15:06:06;3.40;99.90
19803;DHT22;66074;50.764;6.090;2024-01-15T15:08:33;3.40;99.90
19803;DHT22;66074;50.764;6.090;2024-01-15T15:11:00;3.30;99.90
19803;DHT22;66074;50.764;6.090;2024-01-15T15:13:26;3.30;99.90
19803;DHT22;66074;50.764;6.090;2024-01-15T15:15:52;3.30;99.90
19803;DHT22;66074;50.764;6.090;2024-01-15T15:18:19;3.30;99.90
19803;DHT22;66074;50.764;6.090;2024-01-15T15:20:47;3.30;99.90
19803;DHT22;66074;50.764;6.090;2024-01-15T15:23:13;3.30;99.90
19803;DHT22;66074;50.764;6.090;2024-01-15T15:25:38;3.40;99.90
19803;DHT22;66074;50.764;6.090;2024-01-15T15:28:04;3.40;99.90
19803;DHT22;66074;50.764;6.090;2024-01-15T15:30:33;3.40;99.90
19803;DHT22;66074;50.764;6.090;2024-01-15T15:32:59;3.40;99.90
19803;DHT22;66074;50.764;6.090;2024-01-15T15:35:25;3.40;99.90
19803;DHT22;66074;50.764;6.090;2024-01-15T15:37:50;3.40;99.90
19803;DHT22;66074;50.764;6.090;2024-01-15T15:40:16;3.30;99.60
19803;DHT22;66074;50.764;6.090;2024-01-15T15:42:43;3.30;99.80
19803;DHT22;66074;50.764;6.090;2024-01-15T15:45:09;3.30;99.80
19803;DHT22;66074;50.764;6.090;2024-01-15T15:47:37;3.30;99.90